createdAt,value
2022-12-23T00:01:21.858Z,-1.70
2022-12-23T00:03:50.940Z,-1.66
2022-12-23T00:06:18.116Z,-1.62
2022-12-23T00:08:44.674Z,-1.61
2022-12-23T00:11:15.100Z,-1.61
2022-12-23T00:14:01.971Z,-1.67
2022-12-23T00:16:28.519Z,-1.69
2022-12-23T00:18:55.277Z,-1.73
2022-12-23T00:21:24.294Z,-1.75
2022-12-23T00:23:51.584Z,-1.76
2022-12-23T00:26:22.821Z,-1.81
2022-12-23T00:28:49.742Z,-1.85
2022-12-23T00:31:18.826Z,-1.87
2022-12-23T00:33:46.876Z,-1.83
2022-12-23T00:36:24.049Z,-1.82
2022-12-23T00:39:09.231Z,-1.80
2022-12-23T00:41:54.637Z,-1.78
2022-12-23T00:44:21.483Z,-1.73
2022-12-23T00:46:48.244Z,-1.69
2022-12-23T00:49:36.098Z,-1.64
2022-12-23T00:52:03.250Z,-1.63
2022-12-23T00:54:30.047Z,-1.63
2022-12-23T00:56:56.557Z,-1.61
2022-12-23T00:59:23.041Z,-1.62
2022-12-23T01:02:08.658Z,-1.62
2022-12-23T01:04:55.980Z,-1.63
2022-12-23T01:07:24.436Z,-1.61
2022-12-23T01:09:50.943Z,-1.60
2022-12-23T01:12:17.606Z,-1.58
2022-12-23T01:14:46.418Z,-1.63
2022-12-23T01:17:13.014Z,-1.63
2022-12-23T01:19:41.757Z,-1.60
2022-12-23T01:22:09.020Z,-1.62
2022-12-23T01:24:35.582Z,-1.61
2022-12-23T01:27:02.122Z,-1.63
2022-12-23T01:29:29.060Z,-1.81
2022-12-23T01:31:55.716Z,-2.02
2022-12-23T01:34:22.232Z,-2.12
2022-12-23T01:36:49.141Z,-2.22
2022-12-23T01:39:15.636Z,-2.24
2022-12-23T01:42:00.648Z,-2.10
2022-12-23T01:44:45.981Z,-1.96
2022-12-23T01:47:17.804Z,-2.16
2022-12-23T01:49:44.417Z,-2.25
2022-12-23T01:52:13.112Z,-2.34
2022-12-23T01:54:40.093Z,-2.22
2022-12-23T01:57:06.743Z,-2.10
2022-12-23T01:59:52.173Z,-2.27
2022-12-23T02:02:39.924Z,-2.41
2022-12-23T02:05:07.090Z,-2.51
2022-12-23T02:07:54.781Z,-2.34
2022-12-23T02:10:25.396Z,-2.27
2022-12-23T02:12:53.625Z,-2.42
2022-12-23T02:15:59.665Z,-2.52
2022-12-23T02:18:36.173Z,-2.55
2022-12-23T02:21:03.266Z,-2.42
2022-12-23T02:23:45.728Z,-2.41
2022-12-23T02:26:12.147Z,-2.54
2022-12-23T02:28:38.633Z,-2.61
2022-12-23T02:31:09.575Z,-2.64
2022-12-23T02:33:54.804Z,-2.51
2022-12-23T02:36:21.275Z,-2.53
2022-12-23T02:38:53.555Z,-2.64
2022-12-23T02:41:23.080Z,-2.69
2022-12-23T02:43:51.852Z,-2.71
2022-12-23T02:46:23.485Z,-2.56
2022-12-23T02:48:53.130Z,-2.55
2022-12-23T02:51:20.534Z,-2.65
2022-12-23T02:53:49.891Z,-2.75
2022-12-23T02:56:18.377Z,-2.76
2022-12-23T02:58:48.557Z,-2.62
2022-12-23T03:01:16.249Z,-2.58
2022-12-23T03:03:44.205Z,-2.66
2022-12-23T03:06:31.921Z,-2.76
2022-12-23T03:08:59.577Z,-2.82
2022-12-23T03:11:40.243Z,-2.75
2022-12-23T03:14:36.172Z,-2.69
2022-12-23T03:17:20.748Z,-2.89
2022-12-23T03:19:54.123Z,-3.00
2022-12-23T03:22:40.196Z,-3.09
2022-12-23T03:25:21.727Z,-2.99
2022-12-23T03:28:07.151Z,-3.00
2022-12-23T03:30:34.261Z,-3.18
2022-12-23T03:33:18.189Z,-3.28
2022-12-23T03:35:49.189Z,-3.42
2022-12-23T03:38:17.732Z,-3.40
2022-12-23T03:40:47.865Z,-3.27
2022-12-23T03:43:28.986Z,-3.41
2022-12-23T03:46:03.171Z,-3.53
2022-12-23T03:48:35.762Z,-3.61
2022-12-23T03:51:05.774Z,-3.70
2022-12-23T03:53:35.137Z,-3.65
2022-12-23T03:56:07.623Z,-3.52
2022-12-23T03:58:38.590Z,-3.73
2022-12-23T04:01:28.080Z,-3.81
2022-12-23T04:03:54.674Z,-3.86
2022-12-23T04:06:22.024Z,-3.92
2022-12-23T04:08:49.796Z,-3.98
2022-12-23T04:11:17.122Z,-3.91
2022-12-23T04:13:43.625Z,-3.94
2022-12-23T04:16:10.452Z,-4.05
2022-12-23T04:18:36.951Z,-4.10
2022-12-23T04:21:03.512Z,-4.15
2022-12-23T04:23:29.949Z,-4.22
2022-12-23T04:25:56.445Z,-4.29
2022-12-23T04:28:22.902Z,-4.37
2022-12-23T04:30:49.716Z,-4.37
2022-12-23T04:33:16.164Z,-4.25
2022-12-23T04:35:42.666Z,-4.28
2022-12-23T04:38:09.141Z,-4.36
2022-12-23T04:40:35.673Z,-4.41
2022-12-23T04:43:02.174Z,-4.47
2022-12-23T04:45:28.725Z,-4.53
2022-12-23T04:47:55.468Z,-4.61
2022-12-23T04:50:21.921Z,-4.69
2022-12-23T04:52:48.388Z,-4.77
2022-12-23T04:55:14.886Z,-4.81
2022-12-23T04:57:41.499Z,-4.84
2022-12-23T05:00:08.394Z,-4.88
2022-12-23T05:02:34.960Z,-4.92
2022-12-23T05:05:01.547Z,-4.92
2022-12-23T05:07:28.010Z,-4.91
2022-12-23T05:09:54.457Z,-4.97
2022-12-23T05:12:20.978Z,-5.00
2022-12-23T05:14:47.432Z,-4.99
2022-12-23T05:17:13.918Z,-4.99
2022-12-23T05:19:42.162Z,-4.99
2022-12-23T05:22:11.122Z,-4.99
2022-12-23T05:24:37.602Z,-5.02
2022-12-23T05:27:04.154Z,-5.01
2022-12-23T05:29:30.661Z,-4.97
2022-12-23T05:31:57.250Z,-4.96
2022-12-23T05:34:23.844Z,-5.02
2022-12-23T05:36:50.656Z,-5.11
2022-12-23T05:39:17.204Z,-5.23
2022-12-23T05:41:43.683Z,-5.24
2022-12-23T05:44:10.134Z,-5.11
2022-12-23T05:46:38.571Z,-5.16
2022-12-23T05:49:05.068Z,-5.51
2022-12-23T05:51:33.524Z,-5.59
2022-12-23T05:53:59.960Z,-5.61
2022-12-23T05:56:26.470Z,-5.62
2022-12-23T05:58:52.969Z,-5.75
2022-12-23T06:01:19.407Z,-5.72
2022-12-23T06:03:45.962Z,-5.75
2022-12-23T06:06:12.647Z,-5.71
2022-12-23T06:08:39.146Z,-5.75
2022-12-23T06:11:05.845Z,-5.77
2022-12-23T06:13:34.534Z,-5.76
2022-12-23T06:16:01.003Z,-5.71
2022-12-23T06:18:29.673Z,-5.80
2022-12-23T06:20:59.108Z,-5.77
2022-12-23T06:23:26.324Z,-5.77
2022-12-23T06:25:58.332Z,-5.87
2022-12-23T06:28:24.802Z,-5.77
2022-12-23T06:30:54.482Z,-5.86
2022-12-23T06:33:20.984Z,-5.90
2022-12-23T06:35:47.582Z,-5.88
2022-12-23T06:38:14.074Z,-5.85
2022-12-23T06:40:40.534Z,-5.90
2022-12-23T06:43:07.204Z,-5.88
2022-12-23T06:45:33.743Z,-5.90
2022-12-23T06:48:00.263Z,-6.08
2022-12-23T06:50:26.870Z,-6.24
2022-12-23T06:52:53.307Z,-6.31
2022-12-23T06:55:19.773Z,-6.26
2022-12-23T06:57:46.272Z,-6.27
2022-12-23T07:00:15.343Z,-6.23
2022-12-23T07:02:42.095Z,-6.22
2022-12-23T07:05:08.883Z,-6.25
2022-12-23T07:07:35.816Z,-6.21
2022-12-23T07:10:02.294Z,-6.23
2022-12-23T07:12:28.734Z,-6.21
2022-12-23T07:14:57.410Z,-6.21
2022-12-23T07:17:26.064Z,-6.28
2022-12-23T07:19:52.525Z,-6.21
2022-12-23T07:22:21.088Z,-6.19
2022-12-23T07:24:48.455Z,-6.12
2022-12-23T07:27:14.927Z,-6.08
2022-12-23T07:29:41.388Z,-6.14
2022-12-23T07:32:08.185Z,-6.13
2022-12-23T07:34:34.981Z,-6.14
2022-12-23T07:37:02.105Z,-6.19
2022-12-23T07:39:28.585Z,-6.17
2022-12-23T07:42:16.381Z,-6.10
2022-12-23T07:44:41.498Z,-5.98
2022-12-23T07:47:08.799Z,-5.91
2022-12-23T07:49:35.268Z,-5.96
2022-12-23T07:52:02.163Z,-6.11
2022-12-23T07:54:28.628Z,-6.10
2022-12-23T07:56:56.196Z,-6.15
2022-12-23T07:59:25.056Z,-6.29
2022-12-23T08:01:51.572Z,-6.19
2022-12-23T08:04:18.372Z,-6.30
2022-12-23T08:06:46.757Z,-6.39
2022-12-23T08:09:13.279Z,-6.58
2022-12-23T08:11:39.754Z,-6.34
2022-12-23T08:14:06.951Z,-6.49
2022-12-23T08:16:37.874Z,-6.55
2022-12-23T08:19:07.971Z,-6.55
2022-12-23T08:21:35.105Z,-6.57
2022-12-23T08:24:02.204Z,-6.53
2022-12-23T08:26:28.718Z,-6.54
2022-12-23T08:28:55.331Z,-6.40
2022-12-23T08:31:26.059Z,-6.22
2022-12-23T08:33:55.010Z,-6.22
2022-12-23T08:36:23.665Z,-6.23
2022-12-23T08:38:53.878Z,-6.16
2022-12-23T08:41:21.764Z,-6.10
2022-12-23T08:43:50.453Z,-6.16
2022-12-23T08:46:17.194Z,-6.15
2022-12-23T08:48:49.527Z,-6.10
2022-12-23T08:51:20.314Z,-6.24
2022-12-23T08:53:52.506Z,-6.09
2022-12-23T08:56:23.669Z,-6.03
2022-12-23T08:58:51.209Z,-5.95
2022-12-23T09:01:18.618Z,-6.00
2022-12-23T09:03:45.494Z,-6.09
2022-12-23T09:06:14.681Z,-6.05
2022-12-23T09:08:41.569Z,-5.90
2022-12-23T09:11:11.673Z,-5.87
2022-12-23T09:13:38.475Z,-5.86
2022-12-23T09:16:05.531Z,-5.80
2022-12-23T09:18:32.110Z,-5.68
2022-12-23T09:21:00.505Z,-5.56
2022-12-23T09:23:27.964Z,-5.53
2022-12-23T09:25:56.625Z,-5.48
2022-12-23T09:28:23.631Z,-5.42
2022-12-23T09:30:50.730Z,-5.36
2022-12-23T09:33:17.433Z,-5.33
2022-12-23T09:35:44.114Z,-5.27
2022-12-23T09:38:10.687Z,-5.22
2022-12-23T09:40:39.005Z,-5.20
2022-12-23T09:43:25.976Z,-5.26
2022-12-23T09:45:52.526Z,-5.29
2022-12-23T09:48:21.740Z,-5.25
2022-12-23T09:50:50.067Z,-5.17
2022-12-23T09:53:21.452Z,-5.12
2022-12-23T09:55:47.955Z,-5.09
2022-12-23T09:58:37.160Z,-5.07
2022-12-23T10:01:03.650Z,-5.04
2022-12-23T10:03:35.205Z,-4.98
2022-12-23T10:06:14.024Z,-4.96
2022-12-23T10:08:44.916Z,-4.95
2022-12-23T10:11:24.173Z,-4.97
2022-12-23T10:14:11.126Z,-4.94
2022-12-23T10:16:48.889Z,-4.93
2022-12-23T10:19:26.081Z,-4.82
2022-12-23T10:21:56.220Z,-4.69
2022-12-23T10:24:24.961Z,-4.74
2022-12-23T10:26:54.195Z,-4.78
2022-12-23T10:29:22.299Z,-4.77
2022-12-23T10:31:48.807Z,-4.80
2022-12-23T10:34:19.638Z,-4.83
2022-12-23T10:36:50.852Z,-4.89
2022-12-23T10:39:25.586Z,-4.96
2022-12-23T10:42:00.436Z,-4.93
2022-12-23T10:44:29.642Z,-4.94
2022-12-23T10:47:16.855Z,-4.96
2022-12-23T10:49:49.715Z,-4.97
2022-12-23T10:52:19.414Z,-4.95
2022-12-23T10:54:46.899Z,-4.98
2022-12-23T10:57:17.555Z,-4.99
2022-12-23T10:59:44.254Z,-5.03
2022-12-23T11:02:13.764Z,-5.06
2022-12-23T11:04:42.025Z,-5.07
2022-12-23T11:07:42.785Z,-5.03
2022-12-23T11:10:02.817Z,-5.03
2022-12-23T11:12:46.369Z,-5.03
2022-12-23T11:15:35.870Z,-4.99
2022-12-23T11:18:12.580Z,-4.97
2022-12-23T11:20:42.810Z,-4.91
2022-12-23T11:23:30.016Z,-4.86
2022-12-23T11:26:00.935Z,-4.84
2022-12-23T11:28:27.761Z,-4.89
2022-12-23T11:31:08.300Z,-4.89
2022-12-23T11:33:39.876Z,-4.97
2022-12-23T11:36:12.405Z,-5.01
2022-12-23T11:38:48.174Z,-4.97
2022-12-23T11:41:18.398Z,-4.96
2022-12-23T11:43:48.510Z,-4.93
2022-12-23T11:46:25.775Z,-4.93
2022-12-23T11:49:11.265Z,-4.90
2022-12-23T11:51:37.792Z,-4.93
2022-12-23T11:54:04.338Z,-4.95
2022-12-23T11:56:36.400Z,-4.99
2022-12-23T11:59:06.402Z,-4.96
2022-12-23T12:01:33.239Z,-5.01
2022-12-23T12:04:02.043Z,-5.03
2022-12-23T12:06:29.469Z,-5.01
2022-12-23T12:08:57.647Z,-4.96
2022-12-23T12:11:37.961Z,-5.03
2022-12-23T12:14:06.529Z,-4.98
2022-12-23T12:16:32.980Z,-4.99
2022-12-23T12:19:12.824Z,-4.93
2022-12-23T12:21:42.873Z,-4.88
2022-12-23T12:24:18.886Z,-4.84
2022-12-23T12:26:50.979Z,-4.76
2022-12-23T12:29:29.672Z,-4.73
2022-12-23T12:31:58.287Z,-4.87
2022-12-23T12:34:24.779Z,-4.98
2022-12-23T12:37:04.444Z,-5.03
2022-12-23T12:39:33.700Z,-5.06
2022-12-23T12:42:05.807Z,-5.11
2022-12-23T12:44:51.249Z,-5.18
2022-12-23T12:47:52.078Z,-5.12
2022-12-23T12:50:13.079Z,-5.13
2022-12-23T12:52:41.317Z,-5.11
2022-12-23T12:55:23.177Z,-5.14
2022-12-23T12:57:49.713Z,-5.13
2022-12-23T13:00:18.017Z,-5.05
2022-12-23T13:02:56.714Z,-5.11
2022-12-23T13:05:41.930Z,-5.15
2022-12-23T13:08:08.344Z,-5.49
2022-12-23T13:10:47.147Z,-5.60
2022-12-23T13:13:26.961Z,-5.75
2022-12-23T13:16:20.003Z,-5.82
2022-12-23T13:18:58.697Z,-5.96
2022-12-23T13:21:27.029Z,-5.95
2022-12-23T13:24:03.616Z,-5.95
2022-12-23T13:26:38.966Z,-5.94
2022-12-23T13:29:25.106Z,-5.94
2022-12-23T13:31:58.643Z,-6.17
2022-12-23T13:34:43.188Z,-6.29
2022-12-23T13:37:20.548Z,-6.42
2022-12-23T13:39:55.865Z,-6.29
2022-12-23T13:42:30.659Z,-6.27
2022-12-23T13:44:58.181Z,-6.21
2022-12-23T13:47:42.756Z,-6.20
2022-12-23T13:50:15.080Z,-6.23
2022-12-23T13:53:00.017Z,-6.24
2022-12-23T13:55:26.491Z,-6.25
2022-12-23T13:57:56.862Z,-6.45
2022-12-23T14:00:25.145Z,-6.53
2022-12-23T14:03:04.461Z,-6.69
2022-12-23T14:05:41.282Z,-6.84
2022-12-23T14:08:20.353Z,-6.93
2022-12-23T14:11:07.714Z,-6.97
2022-12-23T14:13:40.836Z,-7.05
2022-12-23T14:16:07.309Z,-7.22
2022-12-23T14:18:54.117Z,-7.10
2022-12-23T14:21:21.328Z,-7.16
2022-12-23T14:24:09.213Z,-7.18
2022-12-23T14:26:44.955Z,-7.48
2022-12-23T14:29:23.892Z,-7.55
2022-12-23T14:31:57.532Z,-7.69
2022-12-23T14:34:34.079Z,-7.84
2022-12-23T14:37:18.045Z,-7.80
2022-12-23T14:39:44.512Z,-7.68
2022-12-23T14:42:14.956Z,-7.67
2022-12-23T14:44:45.909Z,-7.51
2022-12-23T14:47:32.614Z,-7.35
2022-12-23T14:50:19.993Z,-7.32
2022-12-23T14:52:50.945Z,-7.33
2022-12-23T14:55:31.946Z,-7.51
2022-12-23T14:58:07.912Z,-7.55
2022-12-23T15:00:45.118Z,-7.74
2022-12-23T15:03:12.324Z,-7.73
2022-12-23T15:05:42.103Z,-7.71
2022-12-23T15:08:30.288Z,-7.62
2022-12-23T15:10:57.676Z,-7.47
2022-12-23T15:13:25.145Z,-7.36
2022-12-23T15:15:57.432Z,-7.37
2022-12-23T15:18:30.575Z,-7.37
2022-12-23T15:21:01.337Z,-7.37
2022-12-23T15:23:28.765Z,-7.40
2022-12-23T15:26:00.400Z,-7.29
2022-12-23T15:28:37.513Z,-7.07
2022-12-23T15:31:04.346Z,-7.08
2022-12-23T15:36:37.297Z,-8.02
2022-12-23T15:39:08.761Z,-8.25
2022-12-23T15:41:41.723Z,-8.30
2022-12-23T15:44:11.386Z,-8.59
2022-12-23T15:46:39.214Z,-8.75
2022-12-23T15:49:06.708Z,-8.71
2022-12-23T15:52:06.324Z,-8.62
2022-12-23T15:54:36.332Z,-8.73
2022-12-23T15:57:06.423Z,-9.10
2022-12-23T15:59:34.575Z,-9.14
2022-12-23T16:02:50.186Z,-9.16
2022-12-23T16:05:05.960Z,-9.21
2022-12-23T16:07:40.664Z,-9.22
2022-12-23T16:10:21.567Z,-9.04
2022-12-23T16:12:50.875Z,-8.74
2022-12-23T16:15:20.350Z,-8.77
2022-12-23T16:17:47.013Z,-8.91
2022-12-23T16:20:16.333Z,-8.78
2022-12-23T16:22:44.780Z,-8.95
2022-12-23T16:25:11.488Z,-9.20
2022-12-23T16:27:43.082Z,-9.44
2022-12-23T16:30:14.253Z,-9.63
2022-12-23T16:32:47.079Z,-9.89
2022-12-23T16:35:23.494Z,-9.81
2022-12-23T16:37:51.375Z,-9.96
2022-12-23T16:40:19.561Z,-9.95
2022-12-23T16:42:46.026Z,-9.96
2022-12-23T16:45:13.738Z,-9.68
2022-12-23T16:47:41.792Z,-9.49
2022-12-23T16:50:12.004Z,-9.42
2022-12-23T16:52:38.711Z,-9.36
2022-12-23T16:55:12.066Z,-9.60
2022-12-23T16:57:38.735Z,-9.81
2022-12-23T17:00:05.510Z,-9.74
2022-12-23T17:02:34.543Z,-9.73
2022-12-23T17:05:01.077Z,-9.77
2022-12-23T17:07:27.556Z,-9.67
2022-12-23T17:09:55.868Z,-9.46
2022-12-23T17:12:22.367Z,-9.34
2022-12-23T17:14:51.061Z,-9.28
2022-12-23T17:17:17.527Z,-9.20
2022-12-23T17:19:46.256Z,-9.31
2022-12-23T17:22:15.728Z,-9.52
2022-12-23T17:24:42.176Z,-9.73
2022-12-23T17:27:15.110Z,-9.88
2022-12-23T17:29:41.587Z,-9.91
2022-12-23T17:32:16.880Z,-10.08
2022-12-23T17:34:43.865Z,-10.03
2022-12-23T17:37:13.304Z,-9.98
2022-12-23T17:39:39.897Z,-9.88
2022-12-23T17:42:06.375Z,-9.86
2022-12-23T17:44:32.877Z,-10.26
2022-12-23T17:46:59.368Z,-10.06
2022-12-23T17:49:27.600Z,-10.04
2022-12-23T17:51:55.850Z,-10.42
2022-12-23T17:54:23.499Z,-10.36
2022-12-23T17:56:50.902Z,-11.21
2022-12-23T17:59:17.493Z,-11.08
2022-12-23T18:01:44.050Z,-10.58
2022-12-23T18:04:10.546Z,-10.92
2022-12-23T18:06:37.041Z,-11.22
2022-12-23T18:09:03.603Z,-10.65
2022-12-23T18:11:42.007Z,-10.39
2022-12-23T18:14:14.571Z,-10.19
2022-12-23T18:16:41.041Z,-10.85
2022-12-23T18:19:15.657Z,-10.68
2022-12-23T18:21:42.170Z,-10.59
2022-12-23T18:24:09.897Z,-10.23
2022-12-23T18:26:36.448Z,-10.12
2022-12-23T18:29:02.989Z,-10.02
2022-12-23T18:31:30.606Z,-10.57
2022-12-23T18:33:57.171Z,-10.70
2022-12-23T18:36:28.405Z,-10.78
2022-12-23T18:38:55.087Z,-11.17
2022-12-23T18:41:22.000Z,-11.09
2022-12-23T18:43:48.596Z,-10.61
2022-12-23T18:46:15.158Z,-10.12
2022-12-23T18:48:41.826Z,-10.08
2022-12-23T18:51:12.853Z,-9.99
2022-12-23T18:53:39.524Z,-10.04
2022-12-23T18:56:06.085Z,-10.18
2022-12-23T18:58:32.563Z,-10.28
2022-12-23T19:00:59.058Z,-10.14
2022-12-23T19:03:29.878Z,-9.80
2022-12-23T19:05:57.695Z,-9.57
2022-12-23T19:08:27.230Z,-10.24
2022-12-23T19:10:55.641Z,-10.20
2022-12-23T19:13:22.433Z,-10.23
2022-12-23T19:15:49.817Z,-10.30
2022-12-23T19:18:17.508Z,-10.30
2022-12-23T19:20:44.749Z,-10.20
2022-12-23T19:23:13.547Z,-10.16
2022-12-23T19:25:41.872Z,-10.25
2022-12-23T19:28:10.293Z,-10.25
2022-12-23T19:30:36.965Z,-10.22
2022-12-23T19:33:03.451Z,-10.03
2022-12-23T19:35:29.932Z,-9.87
2022-12-23T19:37:56.440Z,-9.73
2022-12-23T19:40:22.955Z,-9.58
2022-12-23T19:42:49.742Z,-9.41
2022-12-23T19:45:17.154Z,-9.33
2022-12-23T19:47:43.699Z,-9.23
2022-12-23T19:50:11.255Z,-9.24
2022-12-23T19:52:39.892Z,-9.50
2022-12-23T19:55:08.750Z,-9.98
2022-12-23T19:57:37.116Z,-10.25
2022-12-23T20:00:04.708Z,-10.24
2022-12-23T20:02:31.194Z,-9.99
2022-12-23T20:04:57.725Z,-10.25
2022-12-23T20:07:24.160Z,-10.40
2022-12-23T20:09:51.086Z,-10.27
2022-12-23T20:12:17.604Z,-10.01
2022-12-23T20:14:44.167Z,-10.12
2022-12-23T20:17:10.619Z,-10.21
2022-12-23T20:19:45.801Z,-10.22
2022-12-23T20:22:14.517Z,-9.96
2022-12-23T20:24:41.165Z,-9.76
2022-12-23T20:27:15.611Z,-9.90
2022-12-23T20:29:44.168Z,-9.91
2022-12-23T20:32:10.605Z,-10.03
2022-12-23T20:34:39.948Z,-10.06
2022-12-23T20:37:07.020Z,-10.15
2022-12-23T20:39:33.523Z,-10.28
2022-12-23T20:42:00.107Z,-10.38
2022-12-23T20:44:35.644Z,-10.28
2022-12-23T20:47:04.357Z,-10.09
2022-12-23T20:49:30.953Z,-9.86
2022-12-23T20:51:59.315Z,-9.63
2022-12-23T20:54:32.701Z,-9.42
2022-12-23T20:57:00.326Z,-9.38
2022-12-23T20:59:26.792Z,-9.30
2022-12-23T21:01:53.296Z,-9.27
2022-12-23T21:04:20.560Z,-9.28
2022-12-23T21:06:47.179Z,-9.27
2022-12-23T21:09:15.074Z,-9.22
2022-12-23T21:11:43.352Z,-9.11
2022-12-23T21:14:10.711Z,-9.08
2022-12-23T21:16:38.129Z,-9.28
2022-12-23T21:19:05.603Z,-9.67
2022-12-23T21:21:34.484Z,-10.13
2022-12-23T21:24:04.775Z,-10.46
2022-12-23T21:26:32.381Z,-10.62
2022-12-23T21:29:01.582Z,-10.66
2022-12-23T21:31:29.387Z,-10.52
2022-12-23T21:33:56.072Z,-10.42
2022-12-23T21:36:23.711Z,-10.44
2022-12-23T21:38:50.607Z,-10.42
2022-12-23T21:41:21.273Z,-10.30
2022-12-23T21:43:48.260Z,-10.26
2022-12-23T21:46:15.864Z,-10.04
2022-12-23T21:48:42.894Z,-9.90
2022-12-23T21:51:14.247Z,-10.36
2022-12-23T21:53:42.983Z,-10.77
2022-12-23T21:56:11.064Z,-11.19
2022-12-23T21:58:39.841Z,-11.33
2022-12-23T22:01:26.731Z,-11.40
2022-12-23T22:03:54.181Z,-11.68
2022-12-23T22:06:21.984Z,-11.82
2022-12-23T22:08:49.127Z,-11.75
2022-12-23T22:11:17.355Z,-11.71
2022-12-23T22:13:44.506Z,-11.74
2022-12-23T22:16:12.355Z,-11.68
2022-12-23T22:18:39.077Z,-11.69
2022-12-23T22:21:08.572Z,-11.87
2022-12-23T22:23:38.731Z,-12.00
2022-12-23T22:26:06.172Z,-12.00
2022-12-23T22:28:36.289Z,-11.95
2022-12-23T22:31:03.880Z,-11.97
2022-12-23T22:33:31.327Z,-12.17
2022-12-23T22:35:57.869Z,-12.11
2022-12-23T22:38:24.409Z,-12.25
2022-12-23T22:40:51.701Z,-12.20
2022-12-23T22:43:20.579Z,-11.98
2022-12-23T22:45:47.259Z,-11.59
2022-12-23T22:48:13.909Z,-11.49
2022-12-23T22:50:40.436Z,-12.39
2022-12-23T22:53:06.891Z,-12.27
2022-12-23T22:55:35.650Z,-12.20
2022-12-23T22:58:02.131Z,-12.04
2022-12-23T23:00:28.636Z,-11.87
2022-12-23T23:02:55.109Z,-11.78
2022-12-23T23:05:21.604Z,-11.75
2022-12-23T23:07:48.129Z,-12.09
2022-12-23T23:10:15.064Z,-12.13
2022-12-23T23:12:41.568Z,-12.35
2022-12-23T23:15:08.417Z,-12.09
2022-12-23T23:17:36.783Z,-11.72
2022-12-23T23:20:03.378Z,-11.36
2022-12-23T23:22:30.622Z,-10.97
2022-12-23T23:24:57.898Z,-11.21
2022-12-23T23:27:24.446Z,-11.59
2022-12-23T23:29:50.954Z,-12.12
2022-12-23T23:32:17.467Z,-12.63
2022-12-23T23:34:44.073Z,-13.04
2022-12-23T23:37:10.550Z,-12.94
2022-12-23T23:39:37.048Z,-12.88
2022-12-23T23:42:03.578Z,-13.01
2022-12-23T23:44:31.918Z,-13.00
2022-12-23T23:46:58.360Z,-13.20
2022-12-23T23:49:26.780Z,-13.03
2022-12-23T23:51:53.461Z,-13.22
2022-12-23T23:54:22.148Z,-12.56
2022-12-23T23:56:48.673Z,-11.92
2022-12-23T23:59:15.195Z,-11.93
